Time;durP1;ratioP1;P1;durP2;ratioP2;P2;SDS_P1;SDS_P2;PMS_P1;PMS_P2;Temp;Humidity;BMP_temperature;BMP_pressure;BME280_temperature;BME280_humidity;BME280_pressure;Samples;Min_cycle;Max_cycle;Signal;HPM_P1;HPM_P2
2022/10/17 00:00:49;;;;;;;16.75;9.75;;;;;;;6.28;87.42;99049.61;1704976;83;21426;-77
2022/10/17 00:03:17;;;;;;;13.60;9.03;;;;;;;6.30;87.15;99048.74;1687023;83;21058;-77
2022/10/17 00:05:47;;;;;;;19.35;10.78;;;;;;;6.29;87.27;99049.63;1681700;85;21018;-77
2022/10/17 00:08:16;;;;;;;18.50;10.72;;;;;;;6.33;87.50;99054.03;1693701;85;21078;-77
2022/10/17 00:10:42;;;;;;;17.45;9.98;;;;;;;6.37;87.69;99053.61;1693858;85;21046;-77
2022/10/17 00:13:10;;;;;;;23.70;10.58;;;;;;;6.37;88.12;99058.88;1689957;85;20999;-77
2022/10/17 00:15:38;;;;;;;17.55;9.83;;;;;;;6.40;87.96;99056.23;1692423;85;21527;-77
2022/10/17 00:18:06;;;;;;;21.25;10.28;;;;;;;6.42;87.90;99057.14;1693443;84;21003;-77
2022/10/17 00:20:35;;;;;;;16.80;9.45;;;;;;;6.43;87.49;99056.68;1694090;85;21054;-77
2022/10/17 00:23:01;;;;;;;16.97;9.58;;;;;;;6.41;87.18;99059.33;1693384;85;21066;-77
2022/10/17 00:25:28;;;;;;;13.60;8.28;;;;;;;6.39;87.10;99065.02;1691397;85;21127;-77
2022/10/17 00:27:54;;;;;;;14.07;8.53;;;;;;;6.33;86.93;99060.62;1688327;85;21041;-77
2022/10/17 00:30:21;;;;;;;18.30;9.15;;;;;;;6.28;87.03;99059.72;1694297;85;20955;-76
2022/10/17 00:32:47;;;;;;;16.27;9.20;;;;;;;6.23;86.90;99067.13;1693998;85;21082;-76
2022/10/17 00:35:14;;;;;;;16.57;9.45;;;;;;;6.18;86.79;99062.72;1694089;85;21071;-77
2022/10/17 00:37:43;;;;;;;17.00;9.70;;;;;;;6.13;86.65;99067.08;1694067;85;21075;-76
2022/10/17 00:40:10;;;;;;;15.10;9.05;;;;;;;6.07;86.62;99060.47;1684664;85;21017;-79
2022/10/17 00:42:39;;;;;;;18.55;9.48;;;;;;;6.04;86.78;99059.12;1692345;85;21074;-79
2022/10/17 00:45:23;;;;;;;18.20;10.53;;;;;;;5.99;86.44;99063.45;1689201;84;21062;-79
2022/10/17 00:47:55;;;;;;;15.03;8.90;;;;;;;5.90;86.71;99065.14;1674614;84;21014;-79
2022/10/17 00:50:24;;;;;;;15.35;9.80;;;;;;;5.83;86.71;99065.98;1686021;85;21498;-79
2022/10/17 00:52:52;;;;;;;17.80;10.03;;;;;;;5.77;86.58;99067.27;1685335;85;20979;-79
2022/10/17 00:55:25;;;;;;;16.65;9.73;;;;;;;5.71;86.63;99065.88;1666379;85;20983;-79
2022/10/17 00:57:52;;;;;;;15.78;9.53;;;;;;;5.67;87.18;99071.56;1674203;85;21090;-79
2022/10/17 01:00:19;;;;;;;15.20;9.98;;;;;;;5.64;86.90;99071.10;1677881;85;21011;-79
2022/10/17 01:02:48;;;;;;;15.30;8.93;;;;;;;5.61;86.86;99070.20;1666295;85;21033;-79
2022/10/17 01:05:18;;;;;;;15.95;9.55;;;;;;;5.58;86.77;99075.42;1680927;85;21023;-79
2022/10/17 01:07:48;;;;;;;14.33;9.45;;;;;;;5.52;86.61;99073.66;1676478;85;21018;-79
2022/10/17 01:10:16;;;;;;;19.67;9.38;;;;;;;5.48;86.77;99075.34;1679597;85;21030;-79
2022/10/17 01:13:06;;;;;;;16.48;9.50;;;;;;;5.45;86.90;99070.09;1694133;84;20971;-79
2022/10/17 01:15:48;;;;;;;16.85;9.23;;;;;;;5.41;86.74;99068.30;1688116;85;21007;-79
2022/10/17 01:18:28;;;;;;;16.82;8.85;;;;;;;5.38;86.84;99069.14;1666866;85;21039;-80
2022/10/17 01:21:18;;;;;;;16.77;9.58;;;;;;;5.35;87.09;99066.48;1680303;85;21471;-80
2022/10/17 01:24:05;;;;;;;17.80;9.65;;;;;;;5.33;87.23;99073.91;1693184;85;21014;-80
2022/10/17 01:27:15;;;;;;;17.98;8.88;;;;;;;5.29;87.41;99076.95;1689526;85;21003;-80
2022/10/17 01:30:19;;;;;;;18.80;11.00;;;;;;;5.25;87.13;99080.41;1667793;85;21436;-79
2022/10/17 01:33:00;;;;;;;19.12;9.65;;;;;;;5.22;87.58;99084.31;1693955;84;21478;-79
2022/10/17 01:35:47;;;;;;;18.77;9.90;;;;;;;5.19;87.45;99075.96;1656019;85;21512;-79
2022/10/17 01:38:29;;;;;;;16.20;10.03;;;;;;;5.16;87.71;99073.33;1694021;85;21014;-79
2022/10/17 01:41:04;;;;;;;17.92;10.23;;;;;;;5.16;87.68;99074.64;1694291;85;21463;-79
2022/10/17 01:43:42;;;;;;;17.70;9.85;;;;;;;5.13;87.56;99081.16;1694189;85;21077;-80
2022/10/17 01:46:31;;;;;;;17.92;9.50;;;;;;;5.10;87.36;99078.50;1701363;82;20990;-79
2022/10/17 01:49:01;;;;;;;16.70;9.08;;;;;;;5.07;87.23;99081.98;1704273;84;21022;-79
2022/10/17 01:51:33;;;;;;;13.95;8.45;;;;;;;5.02;87.25;99087.20;1663328;84;21002;-78
2022/10/17 01:54:14;;;;;;;20.02;9.60;;;;;;;4.98;87.44;99086.70;1681541;84;21393;-78
2022/10/17 01:56:42;;;;;;;16.65;9.93;;;;;;;4.98;87.52;99096.36;1703658;83;20986;-79
2022/10/17 01:59:19;;;;;;;18.17;10.08;;;;;;;4.95;87.47;99097.20;1702973;84;21045;-79
2022/10/17 02:01:50;;;;;;;17.20;10.20;;;;;;;4.95;87.57;99097.62;1705081;83;21021;-79
2022/10/17 02:04:17;;;;;;;15.88;9.00;;;;;;;4.92;87.62;99094.53;1704939;83;21018;-79
2022/10/17 02:06:43;;;;;;;16.50;8.48;;;;;;;4.91;87.76;99099.77;1704972;83;21042;-79
2022/10/17 02:09:23;;;;;;;14.53;8.85;;;;;;;4.89;87.61;99109.83;1704992;84;21110;-79
2022/10/17 02:12:24;;;;;;;17.95;9.55;;;;;;;4.89;87.65;99101.95;1704916;83;21014;-79
2022/10/17 02:15:08;;;;;;;16.10;8.88;;;;;;;4.86;87.45;99116.34;1681393;84;21058;-79
2022/10/17 02:17:58;;;;;;;16.48;8.98;;;;;;;4.84;87.47;99110.20;1705063;83;21041;-79
2022/10/17 02:20:42;;;;;;;14.75;9.15;;;;;;;4.84;87.86;99112.84;1705002;83;21014;-79
2022/10/17 02:23:26;;;;;;;15.58;8.55;;;;;;;4.81;87.59;99115.86;1661797;84;21459;-78
2022/10/17 02:26:01;;;;;;;20.30;9.03;;;;;;;4.80;87.72;99115.39;1705210;83;21053;-79
2022/10/17 02:28:57;;;;;;;15.45;8.80;;;;;;;4.83;87.81;99119.38;1705192;83;21664;-79
2022/10/17 02:31:32;;;;;;;15.95;9.13;;;;;;;4.84;87.74;99120.72;1624843;86;21072;-78
2022/10/17 02:34:08;;;;;;;16.15;8.63;;;;;;;4.86;87.81;99122.91;1674129;86;21017;-80
2022/10/17 02:36:43;;;;;;;17.57;8.58;;;;;;;4.90;87.85;99123.83;1705697;83;21014;-79
2022/10/17 02:39:12;;;;;;;14.07;8.50;;;;;;;4.95;87.93;99126.52;1705771;84;21618;-79
2022/10/17 02:41:40;;;;;;;14.40;8.23;;;;;;;4.97;87.84;99120.84;1704627;84;21388;-79
2022/10/17 02:44:10;;;;;;;15.85;8.08;;;;;;;4.98;87.89;99119.55;1705766;84;20974;-79
2022/10/17 02:46:40;;;;;;;12.07;8.33;;;;;;;5.02;88.24;99117.83;1704940;84;21491;-79
2022/10/17 02:49:23;;;;;;;13.80;8.50;;;;;;;5.07;88.38;99122.70;1737418;83;20938;-80
2022/10/17 02:51:58;;;;;;;16.30;7.75;;;;;;;5.13;88.53;99124.52;1716274;83;21525;-79
2022/10/17 02:54:39;;;;;;;17.00;8.18;;;;;;;5.15;88.29;99121.50;1708112;83;21032;-79
2022/10/17 02:57:17;;;;;;;12.80;7.03;;;;;;;5.13;88.51;99126.73;1731116;83;21395;-79
2022/10/17 02:59:46;;;;;;;14.47;7.05;;;;;;;5.12;88.43;99126.26;1687543;83;21438;-80
2022/10/17 03:02:13;;;;;;;13.70;7.08;;;;;;;5.12;88.34;99132.83;1704656;84;20965;-79
2022/10/17 03:04:45;;;;;;;10.03;6.70;;;;;;;5.12;88.45;99134.59;1704705;84;21436;-79
2022/10/17 03:07:12;;;;;;;11.63;7.35;;;;;;;5.16;88.48;99132.45;1719390;83;21450;-79
2022/10/17 03:09:38;;;;;;;12.45;7.03;;;;;;;5.13;88.35;99128.47;1737597;83;20973;-79
2022/10/17 03:12:05;;;;;;;15.00;7.47;;;;;;;5.14;88.48;99122.34;1737510;83;21008;-79
2022/10/17 03:14:32;;;;;;;11.35;6.78;;;;;;;5.15;88.30;99127.62;1703469;84;21008;-80
2022/10/17 03:16:59;;;;;;;12.68;7.05;;;;;;;5.15;88.20;99133.33;1724912;83;21056;-80
2022/10/17 03:19:26;;;;;;;14.38;7.90;;;;;;;5.12;88.03;99131.97;1737422;83;21478;-80
2022/10/17 03:21:52;;;;;;;12.60;7.15;;;;;;;5.12;88.29;99128.89;1737260;82;21025;-79
2022/10/17 03:24:19;;;;;;;11.75;6.97;;;;;;;5.11;88.03;99134.16;1737534;83;21005;-79
2022/10/17 03:26:46;;;;;;;13.45;7.25;;;;;;;5.10;88.02;99135.89;1737292;83;22042;-79
2022/10/17 03:29:13;;;;;;;14.47;7.87;;;;;;;5.09;88.30;99141.12;1737481;83;20973;-80
2022/10/17 03:31:40;;;;;;;13.75;7.42;;;;;;;5.09;88.33;99143.33;1737366;83;21398;-81
2022/10/17 03:34:07;;;;;;;14.65;8.03;;;;;;;5.06;87.88;99141.11;1734978;83;21033;-81
2022/10/17 03:36:33;;;;;;;16.75;8.00;;;;;;;4.99;88.17;99146.27;1737257;83;21020;-81
2022/10/17 03:39:00;;;;;;;13.98;7.80;;;;;;;4.95;88.42;99148.44;1737423;83;21327;-82
2022/10/17 03:41:27;;;;;;;45.10;25.52;;;;;;;4.91;88.55;99146.63;1721158;83;21012;-80
2022/10/17 03:43:54;;;;;;;14.85;8.63;;;;;;;4.87;88.51;99144.83;1737465;83;21442;-80
2022/10/17 03:46:20;;;;;;;13.90;8.73;;;;;;;4.85;88.35;99150.47;1730395;83;20978;-80
2022/10/17 03:48:47;;;;;;;16.15;8.68;;;;;;;4.77;88.07;99155.63;1723780;83;21025;-80
2022/10/17 03:51:15;;;;;;;16.10;9.40;;;;;;;4.70;88.28;99159.92;1738085;82;21041;-80
2022/10/17 03:53:44;;;;;;;15.38;8.15;;;;;;;4.68;88.18;99152.47;1752551;82;20995;-80
2022/10/17 03:56:18;;;;;;;13.10;7.20;;;;;;;4.66;88.15;99157.25;1729875;82;21024;-80
2022/10/17 03:58:47;;;;;;;18.35;8.60;;;;;;;4.61;88.02;99159.38;1716840;83;21466;-79
2022/10/17 04:01:17;;;;;;;12.70;8.53;;;;;;;4.56;87.80;99162.37;1707228;83;21009;-79
2022/10/17 04:03:51;;;;;;;13.32;7.90;;;;;;;4.50;87.80;99166.23;1723714;83;20981;-79
2022/10/17 04:06:19;;;;;;;15.08;8.68;;;;;;;4.45;88.04;99160.91;1723828;83;20950;-80
2022/10/17 04:08:47;;;;;;;15.32;8.18;;;;;;;4.41;87.79;99160.85;1723785;83;21040;-80
2022/10/17 04:11:19;;;;;;;14.73;8.20;;;;;;;4.36;87.88;99166.02;1723742;83;21036;-80
2022/10/17 04:13:47;;;;;;;16.40;8.08;;;;;;;4.33;88.05;99160.74;1723860;83;21021;-80
2022/10/17 04:16:16;;;;;;;13.20;8.45;;;;;;;4.31;88.07;99164.66;1723831;83;21395;-80
2022/10/17 04:18:45;;;;;;;14.00;7.70;;;;;;;4.28;88.17;99160.66;1723038;83;20949;-80
2022/10/17 04:21:12;;;;;;;16.27;7.97;;;;;;;4.26;88.91;99154.52;1723882;83;21020;-80
2022/10/17 04:23:39;;;;;;;15.40;8.25;;;;;;;4.23;88.57;99163.65;1724030;83;20977;-80
2022/10/17 04:26:07;;;;;;;11.40;7.67;;;;;;;4.20;88.60;99165.80;1719782;83;21040;-80
2022/10/17 04:28:35;;;;;;;12.85;7.92;;;;;;;4.19;88.38;99155.30;1723864;83;21005;-80
2022/10/17 04:31:06;;;;;;;12.25;7.90;;;;;;;4.17;88.66;99165.77;1723834;83;21016;-80
2022/10/17 04:33:34;;;;;;;18.55;8.35;;;;;;;4.16;88.87;99167.05;1722637;83;21475;-81
2022/10/17 04:36:09;;;;;;;14.50;8.83;;;;;;;4.15;88.69;99158.73;1718381;83;21013;-80
2022/10/17 04:38:36;;;;;;;13.40;8.30;;;;;;;4.12;88.55;99164.82;1723940;83;21616;-80
2022/10/17 04:41:06;;;;;;;15.25;8.00;;;;;;;4.09;88.34;99156.47;1723894;83;20970;-80
2022/10/17 04:43:35;;;;;;;13.65;7.65;;;;;;;4.08;88.69;99155.99;1723855;83;20974;-79
2022/10/17 04:46:08;;;;;;;14.15;8.70;;;;;;;4.08;88.60;99154.68;1726197;83;21017;-80
2022/10/17 04:48:36;;;;;;;13.93;7.92;;;;;;;4.06;88.46;99153.79;1733876;83;20965;-80
2022/10/17 04:51:12;;;;;;;16.35;8.70;;;;;;;4.05;88.67;99155.97;1745613;81;20984;-80
2022/10/17 04:53:43;;;;;;;13.78;8.58;;;;;;;4.05;88.67;99153.34;1684734;83;21499;-79
2022/10/17 04:56:17;;;;;;;16.82;8.45;;;;;;;4.05;88.58;99161.21;1721314;83;21427;-80
2022/10/17 04:58:46;;;;;;;17.87;9.25;;;;;;;4.03;89.29;99158.97;1691281;83;21050;-80
2022/10/17 05:01:22;;;;;;;15.88;8.93;;;;;;;4.02;89.22;99165.54;1721215;83;20941;-79
2022/10/17 05:03:51;;;;;;;18.85;8.33;;;;;;;4.02;89.17;99162.91;1721192;83;20962;-80
2022/10/17 05:06:22;;;;;;;13.28;8.63;;;;;;;4.05;89.13;99165.14;1721207;83;20970;-79
2022/10/17 05:08:51;;;;;;;20.48;8.65;;;;;;;4.08;89.21;99170.42;1718124;83;21072;-79
2022/10/17 05:11:25;;;;;;;11.93;7.55;;;;;;;4.11;89.48;99163.03;1721244;83;21065;-78
2022/10/17 05:13:58;;;;;;;15.18;8.10;;;;;;;4.15;89.31;99174.03;1721507;83;21060;-80
2022/10/17 05:16:26;;;;;;;12.73;8.08;;;;;;;4.19;89.39;99173.67;1721475;83;20993;-77
2022/10/17 05:18:57;;;;;;;13.95;8.35;;;;;;;4.26;89.54;99180.77;1689296;83;20993;-77
2022/10/17 05:21:28;;;;;;;15.08;8.15;;;;;;;4.34;89.58;99188.75;1701163;83;21048;-77
2022/10/17 05:23:55;;;;;;;13.55;8.03;;;;;;;4.41;89.68;99189.31;1721228;83;21084;-77
2022/10/17 05:26:24;;;;;;;14.70;8.40;;;;;;;4.47;89.71;99192.02;1721174;83;21029;-80
2022/10/17 05:28:53;;;;;;;12.43;8.18;;;;;;;4.53;89.78;99193.83;1721242;83;20962;-80
2022/10/17 05:31:21;;;;;;;12.03;7.97;;;;;;;4.62;89.78;99204.91;1721311;83;20989;-80
2022/10/17 05:33:48;;;;;;;12.80;8.08;;;;;;;4.69;89.85;99209.37;1721243;83;20989;-80
2022/10/17 05:36:14;;;;;;;14.78;7.78;;;;;;;4.74;89.76;99210.77;1700319;83;21367;-77
2022/10/17 05:38:41;;;;;;;15.35;8.25;;;;;;;4.80;89.59;99216.52;1721354;83;21250;-80
2022/10/17 05:41:09;;;;;;;17.67;9.68;;;;;;;4.86;89.77;99221.42;1721204;83;21020;-80
2022/10/17 05:43:37;;;;;;;20.12;9.20;;;;;;;4.92;89.70;99227.62;1712379;83;21001;-80
2022/10/17 05:46:06;;;;;;;15.90;9.30;;;;;;;4.98;89.51;99229.03;1711295;83;21390;-79
2022/10/17 05:48:35;;;;;;;22.02;8.95;;;;;;;5.03;89.80;99236.55;1723355;83;20997;-79
2022/10/17 05:51:07;;;;;;;17.42;8.28;;;;;;;5.12;89.83;99229.20;1689017;84;21060;-79
2022/10/17 05:53:38;;;;;;;15.88;9.43;;;;;;;5.17;89.46;99243.70;1712709;82;21005;-79
2022/10/17 05:56:09;;;;;;;14.23;7.90;;;;;;;5.18;89.22;99242.41;1698590;83;21454;-79
2022/10/17 05:58:39;;;;;;;16.93;8.75;;;;;;;5.20;89.19;99242.02;1678069;85;21090;-79
2022/10/17 06:01:06;;;;;;;17.02;8.15;;;;;;;5.21;88.96;99253.39;1694101;83;20984;-81
2022/10/17 06:03:33;;;;;;;17.67;8.70;;;;;;;5.21;88.89;99253.39;1653991;84;21005;-81
2022/10/17 06:06:09;;;;;;;15.13;8.05;;;;;;;5.26;89.09;99255.64;1678039;84;21077;-81
2022/10/17 06:08:38;;;;;;;15.83;7.90;;;;;;;5.29;89.07;99255.23;1698892;82;21024;-81
2022/10/17 06:11:07;;;;;;;15.08;8.35;;;;;;;5.34;89.23;99254.42;1685829;84;21069;-79
2022/10/17 06:13:33;;;;;;;17.87;8.60;;;;;;;5.36;88.95;99257.52;1688153;84;21387;-79
2022/10/17 06:16:02;;;;;;;14.93;8.00;;;;;;;5.39;89.02;99250.99;1694392;84;21090;-79
2022/10/17 06:18:29;;;;;;;19.17;8.28;;;;;;;5.44;88.77;99257.60;1667457;84;21012;-79
2022/10/17 06:21:06;;;;;;;16.90;8.23;;;;;;;5.48;88.93;99258.09;1684576;83;21096;-78
2022/10/17 06:23:33;;;;;;;17.80;8.18;;;;;;;5.54;88.97;99261.23;1681383;84;20989;-79
2022/10/17 06:26:05;;;;;;;13.85;8.28;;;;;;;5.60;88.95;99261.30;1684079;84;21038;-80
2022/10/17 06:28:35;;;;;;;17.80;8.23;;;;;;;5.63;88.84;99253.45;1700947;82;21053;-80
2022/10/17 06:31:08;;;;;;;19.98;9.53;;;;;;;5.68;88.86;99253.48;1683083;83;21033;-80
2022/10/17 06:33:36;;;;;;;15.43;9.30;;;;;;;5.72;88.83;99256.60;1682558;83;21115;-79
2022/10/17 06:36:05;;;;;;;15.58;8.75;;;;;;;5.77;88.70;99257.98;1718328;82;20958;-79
2022/10/17 06:38:34;;;;;;;15.15;9.30;;;;;;;5.82;88.83;99262.86;1656099;84;21426;-79
2022/10/17 06:41:13;;;;;;;13.85;8.65;;;;;;;5.87;88.79;99254.58;1705283;84;21055;-79
2022/10/17 06:43:47;;;;;;;22.13;11.20;;;;;;;5.92;88.79;99258.55;1694981;83;20969;-80
2022/10/17 06:46:25;;;;;;;13.98;9.30;;;;;;;5.97;88.71;99259.48;1680287;83;21005;-80
2022/10/17 06:48:59;;;;;;;17.57;9.15;;;;;;;6.04;88.85;99262.67;1672661;84;21052;-79
2022/10/17 06:51:31;;;;;;;;;;;;;;;6.11;89.22;99260.08;1693537;83;20957;-80
2022/10/17 06:53:58;;;;;;;16.52;8.83;;;;;;;6.18;88.90;99269.36;1696988;83;20101;-81
2022/10/17 06:56:39;;;;;;;16.32;9.20;;;;;;;6.23;88.98;99274.65;1686355;84;21036;-81
2022/10/17 06:59:10;;;;;;;19.17;9.15;;;;;;;6.32;88.97;99274.73;1701617;83;21048;-81
2022/10/17 07:01:43;;;;;;;15.50;8.73;;;;;;;6.40;88.99;99265.58;1706190;83;20989;-81
2022/10/17 07:04:10;;;;;;;16.10;8.58;;;;;;;6.49;88.95;99267.42;1685212;83;21422;-81
2022/10/17 07:06:38;;;;;;;16.17;8.75;;;;;;;6.56;88.83;99268.36;1652405;84;20968;-82
2022/10/17 07:09:06;;;;;;;16.35;8.43;;;;;;;6.67;88.98;99267.98;1696401;83;21553;-81
2022/10/17 07:11:35;;;;;;;16.48;8.15;;;;;;;6.82;88.80;99269.81;1704934;83;20946;-80
2022/10/17 07:14:04;;;;;;;13.48;7.55;;;;;;;6.94;88.70;99276.06;1692747;83;22393;-80
2022/10/17 07:16:31;;;;;;;19.95;8.33;;;;;;;7.04;88.55;99268.64;1684548;83;21001;-80
2022/10/17 07:19:02;;;;;;;22.45;8.80;;;;;;;7.15;88.47;99269.13;1694115;83;21474;-81
2022/10/17 07:21:35;;;;;;;17.10;9.48;;;;;;;7.28;88.34;99274.92;1704270;83;21048;-82
2022/10/17 07:24:06;;;;;;;17.30;9.08;;;;;;;7.40;88.24;99276.73;1673586;85;21044;-80
2022/10/17 07:26:33;;;;;;;16.97;8.78;;;;;;;7.53;87.82;99269.73;1671455;84;21037;-82
2022/10/17 07:29:01;;;;;;;18.65;8.90;;;;;;;7.64;87.63;99275.92;1680003;83;20989;-81
2022/10/17 07:31:36;;;;;;;18.52;8.75;;;;;;;7.78;87.33;99281.69;1709640;82;21061;-79
2022/10/17 07:34:02;;;;;;;20.90;12.90;;;;;;;7.91;87.45;99279.95;1695926;82;20979;-79
2022/10/17 07:36:35;;;;;;;70.95;37.42;;;;;;;8.00;87.26;99279.97;1717268;83;21434;-83
2022/10/17 07:39:03;;;;;;;56.20;29.52;;;;;;;8.09;87.12;99276.91;1685998;83;21131;-82
2022/10/17 07:41:31;;;;;;;19.67;10.38;;;;;;;8.18;86.91;99279.56;1707261;82;21079;-83
2022/10/17 07:43:58;;;;;;;15.35;9.13;;;;;;;8.27;86.62;99283.96;1716157;82;20981;-83
2022/10/17 07:46:26;;;;;;;16.23;8.90;;;;;;;8.36;86.59;99282.65;1734372;81;21604;-83
2022/10/17 07:48:53;;;;;;;16.42;9.03;;;;;;;8.47;86.76;99283.09;1736433;82;21394;-83
2022/10/17 07:51:22;;;;;;;17.87;9.40;;;;;;;8.59;86.49;99275.17;1715692;82;21016;-83
2022/10/17 07:53:48;;;;;;;18.17;8.83;;;;;;;8.68;86.35;99272.52;1713984;81;21014;-82
2022/10/17 07:56:17;;;;;;;15.43;8.50;;;;;;;8.77;86.11;99273.40;1677678;84;21083;-83
2022/10/17 07:58:47;;;;;;;18.45;9.98;;;;;;;8.88;85.89;99280.00;1679120;84;21062;-83
2022/10/17 08:01:13;;;;;;;14.30;8.65;;;;;;;8.97;85.85;99277.34;1692747;84;20987;-82
2022/10/17 08:03:42;;;;;;;14.20;9.25;;;;;;;9.08;85.85;99275.97;1702405;82;21009;-79
2022/10/17 08:06:12;;;;;;;15.23;8.90;;;;;;;9.19;85.72;99270.22;1707621;82;21577;-81
2022/10/17 08:08:41;;;;;;;14.78;9.70;;;;;;;9.31;85.54;99267.09;1679510;84;21012;-84
2022/10/17 08:11:18;;;;;;;20.20;11.05;;;;;;;9.41;85.33;99270.13;1682780;82;20970;-86
2022/10/17 08:13:54;;;;;;;19.80;12.95;;;;;;;9.50;85.02;99266.55;1684412;83;21054;-85
2022/10/17 08:16:29;;;;;;;20.97;14.35;;;;;;;9.61;85.02;99271.80;1666511;83;21029;-83
2022/10/17 08:18:59;;;;;;;26.00;14.60;;;;;;;9.74;84.41;99272.61;1710260;83;20990;-83
2022/10/17 08:21:29;;;;;;;26.15;15.18;;;;;;;9.87;84.52;99276.95;1686837;84;21045;-84
2022/10/17 08:24:13;;;;;;;26.00;15.55;;;;;;;9.97;84.20;99275.58;1681860;85;21520;-85
2022/10/17 08:30:01;;;;;;;26.77;15.63;;;;;;;10.19;83.58;99278.06;1705831;83;21111;-89
2022/10/17 08:32:36;;;;;;;22.77;14.10;;;;;;;10.26;83.39;99280.66;1700141;83;21014;-85
2022/10/17 08:35:20;;;;;;;27.82;14.13;;;;;;;10.33;82.83;99273.55;1658843;84;21063;-90
2022/10/17 08:37:51;;;;;;;22.95;15.08;;;;;;;10.40;82.51;99283.66;1697438;81;20969;-90
2022/10/17 08:40:25;;;;;;;29.27;15.65;;;;;;;10.48;82.79;99285.84;1664110;83;21027;-81
2022/10/17 08:43:43;;;;;;;24.47;15.43;;;;;;;10.57;82.51;99283.55;1714118;81;21020;-82
2022/10/17 08:46:15;;;;;;;28.98;16.52;;;;;;;10.66;82.33;99289.20;1712315;83;21055;-88
2022/10/17 08:48:47;;;;;;;31.90;16.73;;;;;;;10.74;81.75;99290.02;1716832;83;21051;-85
2022/10/17 08:51:26;;;;;;;31.12;16.55;;;;;;;10.83;82.04;99293.91;1690715;83;21021;-86
2022/10/17 08:54:25;;;;;;;30.00;15.83;;;;;;;10.94;81.97;99297.80;1718882;83;21637;-86
2022/10/17 08:56:58;;;;;;;29.02;16.00;;;;;;;11.05;81.89;99289.70;1701182;81;20969;-87
2022/10/17 08:59:32;;;;;;;28.52;15.78;;;;;;;11.16;81.67;99293.58;1715636;83;21063;-87
2022/10/17 09:02:32;;;;;;;26.48;14.60;;;;;;;11.27;81.64;99296.55;1687031;83;21473;-87
2022/10/17 09:05:42;;;;;;;27.13;14.30;;;;;;;11.39;81.83;99295.53;1704261;83;21008;-85
2022/10/17 09:08:26;;;;;;;25.68;14.47;;;;;;;11.48;81.57;99294.98;1714637;81;21071;-84
2022/10/17 09:11:17;;;;;;;21.15;13.95;;;;;;;11.59;81.13;99301.47;1690707;83;21544;-84
2022/10/17 09:14:14;;;;;;;21.27;12.70;;;;;;;11.73;80.88;99296.44;1709025;81;21079;-87
2022/10/17 09:16:58;;;;;;;20.00;13.70;;;;;;;11.83;80.51;99288.77;1716305;83;21043;-83
2022/10/17 09:19:36;;;;;;;20.30;13.20;;;;;;;11.96;80.28;99289.94;1719221;81;21001;-82
2022/10/17 09:22:21;;;;;;;28.12;14.50;;;;;;;12.05;79.80;99288.95;1715796;83;21039;-83
2022/10/17 09:25:05;;;;;;;30.60;14.70;;;;;;;12.12;80.38;99287.50;1716589;83;21462;-83
2022/10/17 09:27:57;;;;;;;24.52;12.53;;;;;;;12.34;78.45;99295.61;1716818;81;21596;-83
2022/10/17 09:30:42;;;;;;;23.07;12.20;;;;;;;12.34;78.45;99295.61;1660603;84;21044;-84
2022/10/17 09:33:27;;;;;;;20.90;12.47;;;;;;;12.46;78.31;99291.40;1711149;83;21524;-83
2022/10/17 09:35:55;;;;;;;22.80;11.93;;;;;;;12.54;78.25;99296.15;1721347;83;21055;-83
2022/10/17 09:38:27;;;;;;;49.75;28.87;;;;;;;12.65;76.22;99287.11;1725810;83;21509;-83
2022/10/17 09:40:58;;;;;;;20.05;12.35;;;;;;;12.74;76.67;99288.28;1718187;83;21007;-83
2022/10/17 09:43:28;;;;;;;19.02;10.70;;;;;;;12.85;76.78;99288.54;1721383;83;21008;-83
2022/10/17 09:46:31;;;;;;;18.15;11.12;;;;;;;12.92;75.35;99288.87;1721626;83;20996;-83
2022/10/17 09:49:03;;;;;;;16.10;10.93;;;;;;;12.99;74.81;99288.31;1688163;83;21064;-83
2022/10/17 09:51:43;;;;;;;17.87;11.22;;;;;;;13.07;73.62;99289.91;1714545;83;20980;-87
2022/10/17 09:54:27;;;;;;;20.10;12.53;;;;;;;13.15;74.86;99288.43;1715206;81;20985;-88
2022/10/17 10:00:42;;;;;;;17.23;11.68;;;;;;;13.27;74.00;99287.75;1685173;84;21028;-87
2022/10/17 10:03:25;;;;;;;16.35;12.23;;;;;;;13.39;73.26;99278.20;1681116;84;21029;-86
2022/10/17 10:06:20;;;;;;;19.12;11.45;;;;;;;13.52;74.20;99280.19;1684909;83;21194;-85
2022/10/17 10:09:02;;;;;;;19.27;11.00;;;;;;;13.63;73.62;99269.75;1717336;83;21036;-85
2022/10/17 10:11:54;;;;;;;18.85;10.38;;;;;;;13.77;72.29;99279.66;1726374;83;21088;-82
2022/10/17 10:14:35;;;;;;;15.55;10.38;;;;;;;13.90;72.90;99286.06;1720568;83;21038;-86
2022/10/17 10:17:26;;;;;;;18.35;10.53;;;;;;;14.01;71.97;99273.80;1729583;83;21023;-81
2022/10/17 10:19:54;;;;;;;18.05;11.45;;;;;;;14.13;71.12;99266.87;1709135;83;21441;-80
2022/10/17 10:22:22;;;;;;;17.65;11.90;;;;;;;14.31;71.42;99268.20;1708961;83;20961;-81
2022/10/17 10:25:12;;;;;;;20.88;11.60;;;;;;;14.85;72.65;99269.11;1726634;83;21040;-82
2022/10/17 10:27:41;;;;;;;18.02;10.53;;;;;;;15.78;70.11;99273.16;1728304;83;21047;-81
2022/10/17 10:30:22;;;;;;;18.17;10.72;;;;;;;17.02;67.05;99263.36;1716017;83;20995;-81
2022/10/17 10:32:58;;;;;;;16.93;10.90;;;;;;;18.14;65.06;99259.23;1704639;83;21052;-85
2022/10/17 10:35:36;;;;;;;15.93;10.20;;;;;;;19.35;64.82;99253.72;1704936;83;20989;-86
2022/10/17 10:45:12;;;;;;;15.63;10.45;;;;;;;22.18;57.83;99239.84;1559115;91;21069;-88
2022/10/17 10:48:50;;;;;;;13.78;10.30;;;;;;;23.06;52.28;99231.55;1365392;102;21227;-90
2022/10/17 10:54:33;;;;;;;12.47;9.80;;;;;;;24.64;46.79;99206.13;1453987;96;21189;-86
2022/10/17 10:57:08;;;;;;;12.65;9.50;;;;;;;25.77;46.42;99215.45;1429248;98;21106;-84
2022/10/17 11:00:01;;;;;;;11.15;9.48;;;;;;;26.31;47.11;99208.77;1519932;92;21124;-84
2022/10/17 11:03:07;;;;;;;12.55;9.90;;;;;;;26.86;43.06;99208.72;1539659;92;21039;-77
2022/10/17 11:05:47;;;;;;;14.63;9.68;;;;;;;26.82;40.39;99204.50;1601619;87;21053;-78
2022/10/17 11:08:27;;;;;;;15.10;9.95;;;;;;;27.38;43.25;99203.73;1635166;88;21081;-79
2022/10/17 11:11:22;;;;;;;13.80;9.53;;;;;;;27.39;41.39;99202.73;1634582;88;21509;-78
2022/10/17 11:14:09;;;;;;;17.85;9.55;;;;;;;27.78;39.34;99203.71;1630279;88;21033;-76
2022/10/17 11:16:57;;;;;;;11.10;9.35;;;;;;;28.38;39.59;99198.38;1703307;83;21010;-74
2022/10/17 11:19:48;;;;;;;12.68;10.23;;;;;;;28.56;39.21;99189.63;1713754;83;21012;-75
2022/10/17 11:22:31;;;;;;;18.30;9.70;;;;;;;28.75;37.92;99191.63;1719407;83;21008;-79
2022/10/17 11:25:19;;;;;;;12.60;9.50;;;;;;;27.79;37.66;99197.78;1705883;82;21005;-78
2022/10/17 11:27:47;;;;;;;13.08;9.90;;;;;;;26.84;39.12;99188.92;1724302;83;20989;-75
2022/10/17 11:30:16;;;;;;;13.45;9.58;;;;;;;26.40;39.35;99181.89;1713814;82;20971;-77
2022/10/17 11:32:59;;;;;;;11.65;9.30;;;;;;;25.96;40.15;99187.82;1722420;82;21460;-78
2022/10/17 11:35:31;;;;;;;14.70;8.87;;;;;;;25.86;38.70;99190.84;1727075;82;21099;-74
2022/10/17 11:38:09;;;;;;;10.70;8.63;;;;;;;25.96;39.87;99182.39;1720955;83;21418;-74
2022/10/17 11:40:40;;;;;;;11.28;8.98;;;;;;;26.78;38.72;99177.17;1722725;83;21032;-75
2022/10/17 11:43:21;;;;;;;10.23;7.37;;;;;;;26.73;37.80;99173.43;1701954;83;21485;-77
2022/10/17 11:45:53;;;;;;;10.75;8.10;;;;;;;26.85;37.62;99175.20;1712773;83;20961;-75
2022/10/17 11:48:37;;;;;;;10.90;7.55;;;;;;;27.00;38.20;99177.25;1721486;83;21421;-77
2022/10/17 11:51:14;;;;;;;9.63;7.97;;;;;;;26.54;35.58;99176.73;1715403;83;21208;-75
2022/10/17 11:54:07;;;;;;;14.55;7.70;;;;;;;25.88;36.40;99178.89;1694779;83;20997;-75
2022/10/17 11:57:12;;;;;;;11.65;8.03;;;;;;;25.89;37.70;99176.55;1703813;83;21036;-76
2022/10/17 11:59:53;;;;;;;13.88;8.55;;;;;;;26.18;38.40;99172.13;1693182;83;21096;-75
2022/10/17 12:02:37;;;;;;;18.17;8.45;;;;;;;26.04;37.97;99167.75;1707745;83;21004;-79
2022/10/17 12:05:12;;;;;;;15.20;8.03;;;;;;;25.24;38.19;99175.81;1702471;83;21076;-80
2022/10/17 12:08:05;;;;;;;11.85;7.80;;;;;;;24.86;38.71;99168.93;1707069;83;20972;-79
2022/10/17 12:11:01;;;;;;;11.73;7.87;;;;;;;24.91;39.19;99171.34;1703708;83;21079;-79
2022/10/17 12:13:34;;;;;;;13.53;7.20;;;;;;;25.33;37.78;99156.16;1708565;83;20996;-79
2022/10/17 12:16:22;;;;;;;7.27;5.80;;;;;;;25.47;38.46;99167.83;1719279;83;21000;-78
2022/10/17 12:19:05;;;;;;;9.00;6.17;;;;;;;25.63;37.29;99160.35;1705748;83;21233;-79
2022/10/17 12:21:56;;;;;;;10.97;6.13;;;;;;;25.06;35.91;99165.30;1716258;83;21021;-78